Time;durP1;ratioP1;P1;durP2;ratioP2;P2;SDS_P1;SDS_P2;PMS_P1;PMS_P2;Temp;Humidity;BMP_temperature;BMP_pressure;BME280_temperature;BME280_humidity;BME280_pressure;Samples;Min_cycle;Max_cycle;Signal;HPM_P1;HPM_P2
2021/04/08 00:02:04;;;;;;;8.10;2.53;;;0.10;99.90;;;-0.43;66.51;101214.63;4990485;28;20381;-58
2021/04/08 00:04:30;;;;;;;7.40;1.88;;;0.10;99.90;;;-0.35;66.02;101204.94;4971759;28;20485;-48
2021/04/08 00:06:56;;;;;;;3.97;0.90;;;0.20;99.90;;;-0.16;65.21;101212.78;4989637;28;20069;-54
2021/04/08 00:09:23;;;;;;;3.38;1.27;;;0.30;99.90;;;-0.08;64.97;101221.84;4997391;28;20105;-49
2021/04/08 00:11:50;;;;;;;3.35;1.08;;;0.40;99.90;;;-0.04;64.26;101220.84;5008154;28;20132;-49
2021/04/08 00:14:16;;;;;;;4.07;1.30;;;0.50;99.90;;;-0.03;63.97;101214.81;5006851;28;20104;-51
2021/04/08 00:16:43;;;;;;;2.05;0.90;;;0.50;99.90;;;-0.05;64.27;101208.91;5003823;28;20034;-45
2021/04/08 00:19:10;;;;;;;4.03;0.75;;;0.50;99.90;;;0.05;64.07;101218.78;5005524;28;20049;-47
2021/04/08 00:21:37;;;;;;;2.97;0.90;;;0.50;99.90;;;0.12;63.66;101213.38;4990378;28;20035;-54
2021/04/08 00:24:03;;;;;;;3.60;0.60;;;0.60;99.90;;;0.17;63.67;101221.72;4972698;28;20133;-52
2021/04/08 00:26:29;;;;;;;6.00;1.85;;;0.70;99.90;;;0.00;63.89;101211.31;4998969;28;20034;-45
2021/04/08 00:28:55;;;;;;;5.95;3.08;;;0.60;99.90;;;-0.23;65.17;101212.16;5009634;28;20103;-55
2021/04/08 00:31:21;;;;;;;6.38;1.65;;;0.60;99.90;;;-0.38;66.52;101221.25;5006494;28;20056;-51
2021/04/08 00:33:47;;;;;;;5.80;2.65;;;0.30;99.90;;;-0.37;66.08;101227.19;5009795;28;20644;-49
2021/04/08 00:36:13;;;;;;;5.72;2.67;;;0.30;99.90;;;-0.34;66.10;101227.09;4991448;28;20077;-58
2021/04/08 00:38:39;;;;;;;4.80;2.53;;;0.20;99.90;;;-0.39;66.34;101224.69;4990368;28;20120;-50
2021/04/08 00:41:05;;;;;;;6.40;2.85;;;0.20;99.90;;;-0.46;66.67;101223.25;4996790;28;20148;-49
2021/04/08 00:43:31;;;;;;;6.40;2.45;;;0.20;99.90;;;-0.56;67.60;101224.50;5009710;28;20032;-53
2021/04/08 00:45:57;;;;;;;3.97;2.10;;;0.10;99.90;;;-0.51;66.74;101227.72;5003387;28;20130;-50
2021/04/08 00:48:23;;;;;;;4.72;2.22;;;0.10;99.90;;;-0.43;66.21;101228.25;4992009;28;20390;-49
2021/04/08 00:50:49;;;;;;;6.57;1.70;;;0.10;99.90;;;-0.38;66.39;101220.41;5003196;28;20387;-57
2021/04/08 00:53:21;;;;;;;3.97;0.80;;;0.20;99.90;;;-0.35;66.50;101223.69;5009410;28;20383;-44
2021/04/08 00:55:51;;;;;;;5.60;0.82;;;0.20;99.90;;;-0.27;65.79;101222.59;4980324;28;20346;-55
2021/04/08 00:58:19;;;;;;;2.67;0.70;;;0.30;99.90;;;-0.29;66.04;101221.81;5009169;28;20038;-52
2021/04/08 01:00:47;;;;;;;2.45;0.68;;;0.30;99.90;;;-0.26;66.09;101230.22;5004063;28;20061;-55
2021/04/08 01:03:16;;;;;;;3.47;0.80;;;0.30;99.90;;;-0.21;65.68;101233.44;4988243;28;20041;-52
2021/04/08 01:05:43;;;;;;;2.95;0.70;;;0.30;99.90;;;-0.16;66.36;101233.25;4988261;28;20133;-44
2021/04/08 01:08:08;;;;;;;2.42;0.43;;;0.30;99.90;;;-0.07;65.27;101235.47;5006608;28;20088;-55
2021/04/08 01:10:35;;;;;;;1.52;0.50;;;0.40;99.90;;;-0.04;64.96;101225.13;5009031;28;20063;-52
2021/04/08 01:13:09;;;;;;;1.05;0.60;;;0.50;99.90;;;-0.01;65.04;101235.25;4971725;28;20058;-50
2021/04/08 01:15:36;;;;;;;2.75;0.35;;;0.50;99.90;;;0.05;64.52;101229.88;4977706;28;20513;-54
2021/04/08 01:18:37;;;;;;;2.58;0.47;;;0.60;99.90;;;0.12;64.75;101228.75;5009178;28;20045;-55
2021/04/08 01:21:35;;;;;;;2.08;0.63;;;0.60;99.90;;;0.06;65.42;101235.81;4977100;28;20131;-51
2021/04/08 01:24:18;;;;;;;1.73;0.68;;;0.60;99.90;;;0.02;65.08;101240.22;5007387;28;20042;-51
2021/04/08 01:27:22;;;;;;;1.77;0.50;;;0.60;99.90;;;0.02;65.70;101236.84;4988912;28;20137;-52
2021/04/08 01:30:31;;;;;;;4.40;0.47;;;0.60;99.90;;;-0.02;66.28;101236.16;4988183;28;20050;-49
2021/04/08 01:33:01;;;;;;;2.30;0.50;;;0.50;99.90;;;0.00;64.97;101232.59;4991374;28;20037;-43
2021/04/08 01:35:31;;;;;;;3.10;0.60;;;0.60;99.90;;;-0.02;64.84;101236.97;4996493;28;20513;-54
2021/04/08 01:38:35;;;;;;;2.22;0.60;;;0.50;99.90;;;0.05;66.51;101235.00;4988342;28;20069;-47
2021/04/08 01:41:02;;;;;;;2.45;0.60;;;0.60;99.90;;;0.07;65.70;101240.91;4998561;28;20078;-53
2021/04/08 01:43:37;;;;;;;4.50;0.70;;;0.60;99.90;;;0.07;64.91;101228.09;5008455;28;20046;-44
2021/04/08 01:46:05;;;;;;;0.82;0.43;;;0.60;99.90;;;0.08;65.99;101234.88;4992566;28;20425;-50
2021/04/08 01:48:32;;;;;;;1.42;0.50;;;0.60;99.90;;;0.02;65.46;101229.97;4987278;28;20178;-49
2021/04/08 01:51:01;;;;;;;2.45;0.40;;;0.60;99.90;;;-0.01;65.33;101236.09;4968622;28;20408;-48
2021/04/08 01:53:28;;;;;;;3.03;0.43;;;0.50;99.90;;;-0.06;66.01;101232.03;4971362;28;20096;-46
2021/04/08 01:56:00;;;;;;;1.45;0.40;;;0.50;99.90;;;-0.09;66.45;101235.53;4967773;28;20034;-54
2021/04/08 01:58:30;;;;;;;1.65;0.50;;;0.50;99.90;;;-0.11;65.64;101233.94;4971363;28;20523;-46
2021/04/08 02:00:57;;;;;;;4.68;0.40;;;0.40;99.90;;;-0.10;65.99;101228.75;4975983;28;20038;-50
2021/04/08 02:03:25;;;;;;;2.80;0.70;;;0.50;99.90;;;-0.08;66.39;101234.66;4990789;28;20045;-53
2021/04/08 02:05:52;;;;;;;4.50;0.50;;;0.50;99.90;;;-0.11;66.20;101234.75;4985827;28;20048;-52
2021/04/08 02:08:19;;;;;;;3.67;1.48;;;0.50;99.90;;;-0.13;66.24;101236.53;4991105;28;20548;-50
2021/04/08 02:10:46;;;;;;;1.05;0.40;;;0.50;99.90;;;-0.14;65.83;101241.72;4985462;28;20038;-54
2021/04/08 02:13:15;;;;;;;3.00;0.68;;;0.40;99.90;;;-0.13;66.22;101240.84;5008208;28;20050;-48
2021/04/08 02:15:44;;;;;;;2.17;0.50;;;0.40;99.90;;;-0.14;66.08;101229.75;4983432;28;20045;-46
2021/04/08 02:18:21;;;;;;;2.70;0.95;;;0.40;99.90;;;-0.25;66.79;101241.28;4988998;28;20100;-52
2021/04/08 02:20:51;;;;;;;3.78;0.82;;;0.40;99.90;;;-0.36;66.92;101247.63;4976102;28;20100;-58
2021/04/08 02:23:22;;;;;;;2.63;1.08;;;0.20;99.90;;;-0.40;66.22;101243.50;4988690;28;20042;-57
2021/04/08 02:25:50;;;;;;;3.17;1.02;;;0.20;99.90;;;-0.51;66.34;101243.09;4953395;28;20046;-54
2021/04/08 02:28:17;;;;;;;3.33;1.08;;;0.10;99.90;;;-0.53;66.74;101241.47;4988810;28;20066;-48
2021/04/08 02:30:48;;;;;;;4.53;0.80;;;0.10;99.90;;;-0.48;66.12;101240.41;4996223;28;20436;-53
2021/04/08 02:33:26;;;;;;;2.75;0.98;;;0.10;99.90;;;-0.49;68.29;101237.91;5007967;28;20057;-50
2021/04/08 02:35:53;;;;;;;2.05;0.90;;;0.10;99.90;;;-0.34;67.75;101238.16;5000185;28;20140;-51
2021/04/08 02:38:34;;;;;;;3.95;0.95;;;0.20;99.90;;;-0.22;67.92;101234.31;5008011;28;20030;-46
2021/04/08 02:41:09;;;;;;;6.30;2.15;;;0.30;99.90;;;-0.20;66.91;101239.41;4990484;28;20041;-56
2021/04/08 02:43:37;;;;;;;5.85;1.52;;;0.30;99.90;;;-0.32;66.75;101242.41;4988632;28;20410;-53
2021/04/08 02:46:04;;;;;;;4.28;1.20;;;0.30;99.90;;;-0.47;66.70;101244.63;4969396;28;20046;-44
2021/04/08 02:48:32;;;;;;;4.93;2.28;;;0.20;99.90;;;-0.58;67.65;101244.19;4988989;28;20537;-50
2021/04/08 02:51:06;;;;;;;6.88;2.08;;;0.10;99.90;;;-0.59;67.94;101242.53;4995430;28;20382;-52
2021/04/08 02:53:51;;;;;;;3.22;0.75;;;0.00;99.90;;;-0.48;69.31;101242.97;4991135;28;20034;-47
2021/04/08 02:56:28;;;;;;;3.65;0.60;;;0.10;99.90;;;-0.38;68.17;101246.84;5001237;28;20038;-46
2021/04/08 02:59:01;;;;;;;1.15;0.30;;;0.10;99.90;;;-0.33;68.12;101241.56;4991243;28;20026;-54
2021/04/08 03:01:30;;;;;;;4.47;0.50;;;0.20;99.90;;;-0.26;68.62;101242.19;4987273;28;20049;-54
2021/04/08 03:03:59;;;;;;;3.38;0.73;;;0.30;99.90;;;-0.26;68.43;101244.75;4954859;28;20139;-51
2021/04/08 03:06:26;;;;;;;1.73;0.50;;;0.30;99.90;;;-0.26;68.53;101243.00;4967974;28;20041;-50
2021/04/08 03:08:58;;;;;;;1.75;0.50;;;0.30;99.90;;;-0.27;67.96;101245.63;4971200;28;20390;-47
2021/04/08 03:11:35;;;;;;;2.28;0.65;;;0.30;99.90;;;-0.23;69.15;101244.63;5003926;28;20037;-45
2021/04/08 03:14:07;;;;;;;2.17;0.40;;;0.20;99.90;;;-0.24;68.15;101250.63;5011536;28;20042;-55
2021/04/08 03:16:42;;;;;;;4.28;0.40;;;0.30;99.90;;;-0.23;68.96;101253.16;4989353;28;20190;-55
2021/04/08 03:19:14;;;;;;;1.40;0.35;;;0.30;99.90;;;-0.27;67.97;101243.91;4975483;28;20042;-46
2021/04/08 03:21:42;;;;;;;2.05;0.43;;;0.30;99.90;;;-0.28;68.91;101252.47;4991653;28;20030;-49
2021/04/08 03:24:10;;;;;;;1.98;0.43;;;0.30;99.90;;;-0.26;68.90;101254.97;5011325;28;20030;-57
2021/04/08 03:26:36;;;;;;;2.28;0.40;;;0.30;99.90;;;-0.32;68.55;101252.63;4985909;28;20038;-54
2021/04/08 03:29:03;;;;;;;5.00;0.50;;;0.30;99.90;;;-0.29;68.82;101244.84;4993759;28;20376;-48
2021/04/08 03:31:29;;;;;;;1.40;0.47;;;0.30;99.90;;;-0.27;68.56;101253.31;4990385;28;20476;-46
2021/04/08 03:33:56;;;;;;;2.30;0.55;;;0.30;99.90;;;-0.29;68.31;101255.94;4993441;28;20394;-48
2021/04/08 03:36:22;;;;;;;1.25;0.30;;;0.30;99.90;;;-0.24;69.21;101253.19;5206446;23;20046;-52
2021/04/08 03:38:50;;;;;;;3.55;0.40;;;0.30;99.90;;;-0.25;68.85;101252.38;5012014;28;20033;-54
2021/04/08 03:41:18;;;;;;;1.30;0.20;;;0.30;99.90;;;-0.24;69.11;101259.16;5031141;28;20045;-54
2021/04/08 03:43:44;;;;;;;2.08;0.50;;;0.30;99.90;;;-0.24;69.42;101264.28;5030987;28;20693;-58
2021/04/08 03:46:12;;;;;;;2.10;0.47;;;0.30;99.90;;;-0.27;69.06;101253.31;5030949;28;20049;-58
2021/04/08 03:48:41;;;;;;;1.40;0.43;;;0.30;99.90;;;-0.30;69.74;101255.97;5012190;28;20039;-52
2021/04/08 03:51:09;;;;;;;2.05;0.60;;;0.30;99.90;;;-0.35;69.85;101258.72;5013621;28;20083;-54
2021/04/08 03:53:38;;;;;;;2.38;0.35;;;0.20;99.90;;;-0.37;69.12;101258.75;5030978;28;20034;-56
2021/04/08 03:56:05;;;;;;;2.88;0.60;;;0.20;99.90;;;-0.37;69.69;101263.06;5013587;28;20113;-54
2021/04/08 03:58:33;;;;;;;1.83;0.43;;;0.20;99.90;;;-0.36;70.27;101269.84;5012851;28;20568;-48
2021/04/08 04:01:00;;;;;;;1.80;0.50;;;0.20;99.90;;;-0.38;69.64;101261.38;5030662;28;20035;-54
2021/04/08 04:03:26;;;;;;;4.25;1.15;;;0.20;99.90;;;-0.43;69.96;101258.97;5012079;28;20520;-52
2021/04/08 04:05:53;;;;;;;1.50;0.30;;;0.10;99.90;;;-0.40;71.10;101266.56;5030691;28;20064;-60
2021/04/08 04:08:19;;;;;;;3.67;0.40;;;0.20;99.90;;;-0.41;70.55;101259.75;5012756;28;20037;-48
2021/04/08 04:10:45;;;;;;;1.63;0.50;;;0.10;99.90;;;-0.34;70.52;101253.53;5030619;28;20061;-56
2021/04/08 04:13:14;;;;;;;2.88;0.57;;;0.20;99.90;;;-0.35;70.91;101261.28;5029345;28;20481;-56
2021/04/08 04:15:45;;;;;;;2.45;0.80;;;0.20;99.90;;;-0.31;70.90;101257.72;5030463;28;20049;-47
2021/04/08 04:18:16;;;;;;;2.20;0.60;;;0.20;99.90;;;-0.32;70.58;101265.44;5030413;28;20441;-43
2021/04/08 04:20:42;;;;;;;4.55;0.98;;;0.20;99.90;;;-0.32;70.27;101260.31;5030607;28;20040;-46
2021/04/08 04:23:08;;;;;;;2.20;0.73;;;0.20;99.90;;;-0.37;69.90;101252.81;5029394;28;20029;-51
2021/04/08 04:25:34;;;;;;;2.60;0.77;;;0.20;99.90;;;-0.34;70.10;101257.81;5029859;28;20045;-53
2021/04/08 04:28:00;;;;;;;4.38;1.23;;;0.20;99.90;;;-0.26;69.68;101254.97;5030166;28;20029;-49
2021/04/08 04:30:26;;;;;;;3.22;0.98;;;0.30;99.90;;;-0.21;70.24;101259.03;5030474;28;20084;-57
2021/04/08 04:32:56;;;;;;;1.98;0.68;;;0.30;99.90;;;-0.21;70.98;101261.59;5030148;28;20481;-54
2021/04/08 04:35:22;;;;;;;4.53;0.70;;;0.30;99.90;;;-0.20;70.36;101270.13;5029178;28;20033;-53
2021/04/08 04:37:50;;;;;;;4.25;0.70;;;0.40;99.90;;;-0.18;70.14;101266.63;5030056;28;20049;-54
2021/04/08 04:40:16;;;;;;;3.80;0.82;;;0.40;99.90;;;-0.14;69.37;101270.75;5030413;28;20388;-52
2021/04/08 04:42:43;;;;;;;2.53;0.63;;;0.40;99.90;;;-0.14;70.18;101272.47;5029809;28;20033;-59
2021/04/08 04:45:15;;;;;;;1.17;0.50;;;0.40;99.90;;;-0.09;69.92;101279.09;5028900;28;20416;-51
2021/04/08 04:47:42;;;;;;;1.92;0.60;;;0.40;99.90;;;-0.07;70.37;101281.59;5030000;28;20038;-57
2021/04/08 04:50:12;;;;;;;3.65;0.70;;;0.50;99.90;;;-0.04;69.71;101290.00;5029837;28;20082;-52
2021/04/08 04:52:38;;;;;;;3.83;0.93;;;0.50;99.90;;;-0.02;69.63;101292.50;5012098;28;20128;-51
2021/04/08 04:55:06;;;;;;;1.40;0.60;;;0.60;99.90;;;0.01;69.77;101294.94;5027495;28;20055;-49
2021/04/08 04:57:33;;;;;;;2.42;0.80;;;0.60;99.90;;;0.03;69.04;101295.72;5030020;28;20087;-51
2021/04/08 04:59:59;;;;;;;2.28;0.52;;;0.60;99.90;;;0.05;70.03;101295.66;5028538;28;20032;-51
2021/04/08 05:02:25;;;;;;;2.38;0.80;;;0.60;99.90;;;0.08;69.75;101304.06;5028875;28;20034;-54
2021/04/08 05:04:51;;;;;;;1.88;0.77;;;0.70;99.90;;;0.11;69.66;101301.38;5011493;28;20488;-60
2021/04/08 05:07:17;;;;;;;4.03;1.00;;;0.70;99.90;;;0.22;69.51;101306.94;5029223;28;20057;-51
2021/04/08 05:09:43;;;;;;;2.65;0.90;;;0.80;99.90;;;0.58;68.99;101301.28;5029146;28;20029;-48
2021/04/08 05:12:09;;;;;;;2.47;0.65;;;1.30;99.90;;;1.16;67.44;101309.19;5029350;28;20072;-57
2021/04/08 05:14:35;;;;;;;1.73;0.57;;;2.00;99.90;;;1.99;65.18;101317.50;5028427;28;20444;-55
2021/04/08 05:17:01;;;;;;;3.63;0.85;;;3.40;99.90;;;3.08;61.94;101316.59;5029431;28;20072;-53
2021/04/08 05:19:27;;;;;;;2.85;0.82;;;4.90;94.60;;;3.79;59.44;101319.81;5029213;28;20445;-50
2021/04/08 05:21:53;;;;;;;3.95;0.70;;;5.90;87.30;;;4.33;58.32;101328.91;5029078;28;20033;-48
2021/04/08 05:24:19;;;;;;;2.72;0.85;;;6.60;81.30;;;5.10;56.76;101322.03;5027998;28;20490;-54
2021/04/08 05:26:46;;;;;;;3.22;1.08;;;7.70;75.80;;;5.61;54.38;101324.16;5028998;28;20029;-54
2021/04/08 05:29:12;;;;;;;1.85;0.70;;;8.40;67.50;;;5.55;54.16;101327.09;5029160;28;20033;-47
2021/04/08 05:31:38;;;;;;;1.50;0.77;;;8.20;67.20;;;6.21;52.25;101331.69;5028787;28;20453;-54
2021/04/08 05:34:04;;;;;;;3.60;0.82;;;8.70;65.70;;;6.77;51.02;101326.44;5010092;28;20056;-56
2021/04/08 05:36:30;;;;;;;2.53;0.50;;;9.10;63.60;;;6.73;50.19;101318.03;5028261;28;20443;-47
2021/04/08 05:38:56;;;;;;;2.65;1.15;;;9.60;60.20;;;6.58;51.42;101325.03;5028586;28;20037;-52
2021/04/08 05:41:22;;;;;;;5.50;1.70;;;9.80;59.80;;;6.51;50.53;101322.94;5010756;28;20038;-55
2021/04/08 05:43:48;;;;;;;5.78;1.00;;;9.90;58.60;;;6.40;50.96;101331.38;5028528;28;20064;-52
2021/04/08 05:46:14;;;;;;;2.85;0.90;;;9.40;58.70;;;7.42;48.12;101332.44;5027435;28;20045;-51
2021/04/08 05:48:40;;;;;;;4.60;0.75;;;9.90;58.90;;;7.61;48.23;101335.44;5028459;28;20041;-46
2021/04/08 05:51:07;;;;;;;2.13;1.10;;;10.40;56.90;;;7.27;48.74;101334.31;5028428;28;20033;-52
2021/04/08 05:53:33;;;;;;;2.22;0.80;;;10.90;55.60;;;7.09;48.46;101342.47;5028046;28;20044;-47
2021/04/08 05:55:59;;;;;;;3.80;1.08;;;11.00;54.60;;;7.20;48.39;101345.16;5027336;28;20472;-57
2021/04/08 05:58:25;;;;;;;3.38;0.70;;;10.80;54.60;;;6.74;49.91;101339.56;4994297;28;20052;-46
2021/04/08 06:00:51;;;;;;;4.18;0.90;;;10.50;54.90;;;7.65;47.68;101342.09;5028427;28;20370;-48
2021/04/08 06:03:17;;;;;;;1.95;0.70;;;11.30;53.10;;;8.11;47.27;101341.50;5027334;28;20160;-52
2021/04/08 06:05:43;;;;;;;2.55;0.88;;;12.10;52.30;;;8.08;47.39;101339.13;5024636;28;20131;-56
2021/04/08 06:08:09;;;;;;;3.08;0.90;;;12.40;51.00;;;8.13;46.86;101337.03;5019416;28;20432;-49
2021/04/08 06:10:35;;;;;;;4.97;1.17;;;12.40;50.20;;;7.86;46.75;101339.78;5022139;28;20481;-55
2021/04/08 06:13:01;;;;;;;2.50;0.70;;;12.10;50.70;;;7.45;47.06;101336.59;5020041;28;20149;-52
2021/04/08 06:15:29;;;;;;;3.45;1.10;;;11.80;50.20;;;7.63;47.40;101335.34;5028428;28;20112;-46
2021/04/08 06:17:55;;;;;;;2.78;1.17;;;11.80;50.70;;;7.75;46.18;101337.09;5026405;28;20056;-47
2021/04/08 06:20:23;;;;;;;2.47;1.00;;;12.00;49.50;;;7.97;45.70;101331.28;5028254;28;20049;-50
2021/04/08 06:22:56;;;;;;;4.45;0.90;;;12.00;50.00;;;7.91;45.56;101331.69;5025877;28;20053;-57
2021/04/08 06:25:23;;;;;;;2.15;0.80;;;12.10;49.70;;;8.45;44.24;101342.59;5028268;28;20033;-53
2021/04/08 06:27:50;;;;;;;3.10;0.70;;;12.70;48.60;;;8.52;44.38;101346.38;5020312;28;20036;-52
2021/04/08 06:30:17;;;;;;;2.67;0.60;;;13.10;47.30;;;8.88;42.60;101342.06;5026390;28;20033;-50
2021/04/08 06:32:43;;;;;;;2.90;1.20;;;13.70;45.90;;;8.81;43.07;101344.28;5026192;28;20061;-47
2021/04/08 06:35:11;;;;;;;1.70;0.90;;;13.50;46.00;;;8.73;42.35;101340.59;5028222;28;20065;-53
2021/04/08 06:37:37;;;;;;;15.20;5.70;;;13.40;45.60;;;8.28;43.21;101354.13;5025323;28;20080;-54
2021/04/08 06:40:06;;;;;;;9.25;4.25;;;12.70;47.00;;;8.40;42.50;101352.47;5020892;28;20052;-53
2021/04/08 06:42:35;;;;;;;5.43;2.47;;;12.30;46.90;;;7.96;43.16;101340.00;5018927;28;20029;-50
2021/04/08 06:45:05;;;;;;;2.28;0.98;;;11.30;49.00;;;7.49;44.24;101345.84;5019664;28;20060;-51
2021/04/08 06:48:01;;;;;;;2.15;0.93;;;9.90;51.70;;;6.90;45.80;101353.19;5018827;28;21384;-55
2021/04/08 06:50:33;;;;;;;3.65;1.10;;;8.60;55.60;;;6.06;47.97;101345.59;5025521;28;20033;-51
2021/04/08 06:53:02;;;;;;;2.00;0.80;;;7.30;59.70;;;5.58;49.34;101355.34;5022040;28;20054;-51
2021/04/08 06:55:29;;;;;;;3.05;1.30;;;6.60;61.60;;;5.53;49.83;101347.03;5011910;28;20022;-46
2021/04/08 06:57:55;;;;;;;5.75;0.95;;;6.30;63.60;;;5.56;50.08;101348.59;5027539;28;20033;-51
2021/04/08 07:00:22;;;;;;;2.65;1.02;;;6.20;64.10;;;5.76;49.70;101355.16;5028226;28;20029;-53
2021/04/08 07:02:48;;;;;;;4.03;1.38;;;6.30;64.60;;;5.88;49.36;101351.84;5031561;28;20026;-52
2021/04/08 07:05:15;;;;;;;3.03;1.75;;;6.40;65.10;;;5.74;50.29;101347.50;5010453;28;20132;-49
2021/04/08 07:07:40;;;;;;;2.05;1.25;;;6.40;65.10;;;6.00;49.99;101353.72;5025523;28;20041;-56
2021/04/08 07:10:08;;;;;;;4.90;1.10;;;6.50;65.60;;;6.28;49.35;101351.09;5023668;28;20079;-57
2021/04/08 07:12:34;;;;;;;6.18;0.70;;;6.70;65.90;;;6.08;49.97;101350.66;5023597;28;21407;-46
2021/04/08 07:15:00;;;;;;;3.47;1.50;;;6.70;65.60;;;6.23;49.93;101349.69;5005320;28;20033;-53
2021/04/08 07:17:29;;;;;;;3.22;1.70;;;6.80;66.00;;;6.45;49.49;101359.56;5025056;28;20120;-49
2021/04/08 07:19:57;;;;;;;4.00;1.90;;;6.90;66.40;;;6.81;48.91;101357.22;5029519;28;20029;-52
2021/04/08 07:22:24;;;;;;;4.32;1.40;;;7.20;66.30;;;7.04;48.32;101357.50;5028527;28;20033;-47
2021/04/08 07:24:51;;;;;;;5.78;1.85;;;7.60;65.40;;;7.38;47.65;101348.31;5030032;28;20555;-49
2021/04/08 07:27:20;;;;;;;4.75;1.50;;;7.80;65.20;;;7.69;47.14;101357.44;5025510;28;20128;-53
2021/04/08 07:29:49;;;;;;;5.20;2.00;;;8.10;64.90;;;7.90;47.25;101353.38;5012212;28;20148;-54
2021/04/08 07:32:33;;;;;;;7.47;2.22;;;8.20;64.80;;;7.76;48.52;101361.28;5030390;28;20061;-58
2021/04/08 07:35:18;;;;;;;4.00;1.65;;;8.30;64.50;;;8.01;46.74;101361.25;5022205;28;20038;-49
2021/04/08 07:37:59;;;;;;;6.80;1.50;;;8.40;64.20;;;7.94;47.61;101362.63;5021710;28;20654;-49
2021/04/08 07:40:27;;;;;;;5.97;1.20;;;8.40;65.00;;;8.02;47.44;101369.88;5021546;28;20030;-52
2021/04/08 07:42:54;;;;;;;5.38;1.70;;;8.50;64.70;;;8.27;46.89;101377.59;5022922;28;20086;-53
2021/04/08 07:45:35;;;;;;;1.67;0.70;;;8.60;64.40;;;8.50;46.17;101373.44;5002776;28;20060;-61
2021/04/08 07:48:07;;;;;;;5.50;1.35;;;8.80;64.10;;;8.50;46.73;101371.66;5023151;28;20507;-52
2021/04/08 07:50:39;;;;;;;3.22;1.33;;;8.90;64.00;;;8.68;46.07;101377.28;5019370;28;20333;-50
2021/04/08 07:53:05;;;;;;;6.57;2.13;;;9.00;63.70;;;8.91;45.82;101379.06;5027625;28;20386;-54
2021/04/08 07:55:31;;;;;;;7.40;1.85;;;9.20;63.30;;;9.65;44.36;101377.84;5026657;28;20107;-53
2021/04/08 07:58:07;;;;;;;11.38;1.88;;;9.70;63.20;;;9.75;43.94;101375.38;5030454;28;20049;-54
2021/04/08 08:00:41;;;;;;;2.17;1.15;;;10.10;62.10;;;9.63;44.35;101378.91;5026285;28;20030;-53
2021/04/08 08:03:23;;;;;;;7.80;1.65;;;10.10;61.30;;;9.73;43.51;101374.66;5030886;28;20072;-49
2021/04/08 08:05:50;;;;;;;2.85;1.20;;;10.10;61.30;;;9.62;43.96;101382.44;5026296;28;20500;-53
2021/04/08 08:08:19;;;;;;;5.75;1.52;;;10.10;61.10;;;9.96;44.05;101385.91;5028678;28;20045;-55
2021/04/08 08:11:03;;;;;;;1.98;1.10;;;10.30;61.20;;;10.27;41.72;101390.44;5030654;28;20025;-46
2021/04/08 08:13:59;;;;;;;3.97;0.60;;;10.50;60.00;;;10.75;39.23;101390.09;5028167;28;20284;-58
2021/04/08 08:16:31;;;;;;;4.88;0.75;;;10.90;59.10;;;10.79;41.10;101388.91;5027767;28;20081;-46
2021/04/08 08:18:59;;;;;;;1.73;0.50;;;11.10;57.10;;;11.12;40.59;101390.53;5029504;28;20057;-50
2021/04/08 08:21:30;;;;;;;2.78;0.38;;;11.40;57.60;;;11.53;39.84;101402.75;5024612;28;20045;-49
2021/04/08 08:23:58;;;;;;;1.45;0.40;;;11.70;57.00;;;11.20;39.23;101390.75;5022076;28;20118;-57
2021/04/08 08:26:34;;;;;;;3.88;0.90;;;11.70;54.50;;;11.56;36.75;101391.25;5028633;28;20037;-55
2021/04/08 08:29:10;;;;;;;1.10;0.43;;;11.80;54.10;;;11.75;37.01;101387.91;5029211;28;20056;-48
2021/04/08 08:31:48;;;;;;;0.75;0.32;;;12.00;53.60;;;11.85;35.83;101389.63;5011985;28;20041;-54
2021/04/08 08:34:29;;;;;;;0.90;0.40;;;12.10;52.30;;;12.04;33.99;101391.50;5027939;28;20050;-56
2021/04/08 08:36:58;;;;;;;1.30;0.38;;;12.30;51.80;;;12.07;35.58;101395.66;5029620;28;20118;-47
2021/04/08 08:39:34;;;;;;;1.17;0.32;;;12.40;50.80;;;11.83;33.03;101385.50;5028620;28;20041;-55
2021/04/08 08:42:04;;;;;;;0.75;0.40;;;12.30;48.50;;;12.24;34.37;101389.81;5029856;28;20045;-49
2021/04/08 08:44:31;;;;;;;1.35;0.50;;;12.50;49.50;;;12.51;33.80;101390.00;5027166;28;20045;-55
2021/04/08 08:47:11;;;;;;;0.95;0.32;;;12.70;48.70;;;12.15;28.95;101394.03;5010468;28;20039;-52
2021/04/08 08:49:46;;;;;;;1.83;0.40;;;12.60;44.50;;;11.75;31.85;101390.53;5011400;28;20029;-54
2021/04/08 08:52:22;;;;;;;3.53;0.30;;;12.30;46.60;;;12.01;31.51;101391.78;5029726;28;20064;-48
2021/04/08 08:54:49;;;;;;;2.92;0.30;;;12.20;47.00;;;12.34;32.21;101393.25;5019942;28;20042;-48
2021/04/08 08:57:17;;;;;;;3.88;0.50;;;12.50;47.20;;;12.42;32.50;101389.97;5004971;28;20073;-47
2021/04/08 08:59:48;;;;;;;4.28;0.40;;;12.70;46.80;;;12.67;32.24;101399.94;5011885;28;20497;-45
2021/04/08 09:02:16;;;;;;;0.77;0.38;;;12.90;46.90;;;12.75;32.23;101397.47;5002091;28;20045;-46
2021/04/08 09:04:42;;;;;;;0.90;0.30;;;13.00;46.80;;;12.80;31.72;101402.28;5027223;28;20350;-46
2021/04/08 09:07:13;;;;;;;1.63;0.32;;;13.10;45.50;;;12.87;31.00;101396.38;5011246;28;20037;-52
2021/04/08 09:09:47;;;;;;;2.05;0.40;;;13.20;45.40;;;12.93;30.61;101402.84;5025217;28;20041;-51
2021/04/08 09:12:17;;;;;;;0.85;0.40;;;13.30;45.10;;;13.01;31.92;101396.94;5019379;28;20049;-49
2021/04/08 09:14:49;;;;;;;1.40;0.50;;;13.30;46.30;;;12.87;30.31;101401.59;5023352;28;20038;-53
2021/04/08 09:17:45;;;;;;;3.00;0.50;;;13.30;45.60;;;12.94;31.85;101397.47;5028824;28;20046;-54
2021/04/08 09:20:15;;;;;;;2.00;0.60;;;13.30;46.60;;;12.59;32.92;101392.75;5026262;28;20115;-54
2021/04/08 09:22:59;;;;;;;0.85;0.40;;;13.10;46.60;;;12.71;31.46;101403.94;5021454;28;20583;-56
2021/04/08 09:25:31;;;;;;;2.22;0.30;;;13.10;46.10;;;12.84;31.24;101401.88;5017256;28;20107;-50
2021/04/08 09:28:05;;;;;;;1.55;0.50;;;13.20;44.70;;;12.75;30.86;101405.31;5023309;28;20090;-50
2021/04/08 09:30:41;;;;;;;1.65;0.52;;;13.10;45.80;;;13.00;31.82;101405.75;5019967;28;20045;-49
2021/04/08 09:33:07;;;;;;;;;;;13.30;45.90;;;12.65;29.50;101393.19;5020855;28;20119;-55
2021/04/08 09:35:34;;;;;;;2.15;0.57;;;13.20;43.60;;;12.76;32.32;101393.88;5021760;28;19921;-54
2021/04/08 09:37:59;;;;;;;1.20;0.50;;;13.20;45.80;;;13.25;32.07;101395.56;5018892;28;20087;-53
2021/04/08 09:40:40;;;;;;;1.77;0.55;;;13.40;46.30;;;13.15;30.51;101391.28;5027531;28;20052;-47
2021/04/08 09:43:14;;;;;;;1.52;0.52;;;13.60;45.50;;;13.43;31.78;101387.81;5023553;28;20087;-52
2021/04/08 09:45:52;;;;;;;3.53;0.80;;;13.70;46.20;;;13.54;31.29;101390.28;5029269;28;20734;-55
2021/04/08 09:48:24;;;;;;;3.35;0.38;;;13.80;45.80;;;13.54;30.47;101389.47;5007682;28;20033;-54
2021/04/08 09:50:57;;;;;;;3.30;0.40;;;13.90;45.50;;;13.70;29.86;101388.88;5029128;28;20504;-51
2021/04/08 09:53:53;;;;;;;0.98;0.30;;;14.00;44.30;;;13.97;28.67;101391.53;5022853;28;20489;-51
2021/04/08 09:56:18;;;;;;;3.28;0.30;;;14.10;44.00;;;14.14;29.54;101382.09;5020271;28;20055;-54
2021/04/08 09:58:56;;;;;;;1.95;0.20;;;14.30;43.60;;;14.10;26.42;101386.78;5021486;28;20138;-56
2021/04/08 10:01:22;;;;;;;3.50;0.30;;;14.40;41.30;;;13.97;28.20;101396.78;5018181;28;20130;-50
2021/04/08 10:03:48;;;;;;;2.72;0.20;;;14.30;40.70;;;13.87;27.96;101385.50;5020233;28;20100;-52
2021/04/08 10:06:23;;;;;;;13.82;0.95;;;14.30;40.70;;;13.83;25.30;101387.56;5019666;28;20053;-54
2021/04/08 10:08:50;;;;;;;24.38;1.08;;;14.20;40.00;;;13.80;27.06;101387.03;5020377;28;20128;-59
2021/04/08 10:11:30;;;;;;;1.20;0.20;;;14.20;39.50;;;13.86;24.91;101387.28;5020169;28;20762;-47
2021/04/08 10:13:56;;;;;;;11.43;0.43;;;14.20;38.10;;;14.19;25.61;101385.91;5020440;28;20570;-49
2021/04/08 10:16:22;;;;;;;6.22;0.20;;;14.50;38.10;;;14.32;24.71;101384.72;5021932;28;20029;-51
2021/04/08 10:19:00;;;;;;;1.88;0.20;;;14.60;37.30;;;13.99;20.76;101384.34;5019411;28;20044;-59
2021/04/08 10:21:27;;;;;;;7.80;0.40;;;14.60;35.50;;;14.26;23.43;101386.97;5004245;28;20029;-53
2021/04/08 10:23:54;;;;;;;7.88;0.80;;;14.50;35.70;;;14.25;23.85;101380.06;5000685;28;20894;-48
2021/04/08 10:26:31;;;;;;;2.53;0.22;;;14.50;36.10;;;14.31;20.79;101385.72;5017498;28;20128;-53
2021/04/08 10:29:00;;;;;;;1.30;0.30;;;14.60;36.00;;;13.94;23.68;101381.34;4999788;28;20083;-54
2021/04/08 10:31:41;;;;;;;1.25;0.10;;;14.40;36.00;;;14.31;22.83;101381.28;5017285;28;20477;-49
2021/04/08 10:34:19;;;;;;;1.80;0.20;;;14.60;36.30;;;14.57;22.90;101378.84;5018536;28;20029;-49